Venice Center, New York
Current Conditions -  °F | °C
As of 3:56 PM on Tuesday 27 Jan 2015 (Local Time) from KITH Reporting Station
Light Snow Light Snow  
Wind Chill: -1°   Ceiling: 1600
Heat Index: 12°   Visibility: 4mi
Dew Point:   Wind: 10mph
Humidity: 73%   Direction: 340°NNW
Pressure: 29.92"   Gusts: 21mph
Location:  42.7818°N, 76.5651°W
Report Text: KITH 272056Z 34009G18KT 4SM -SN OVC016 M11/M15 A2992 RMK AO2 53015 60000 T11111150 P0000 SLP153
Loading
Personal Weather Stations






























Interactive Weather Map New forecast layout! Learn more

10-Day Weather Forecast

Advertisements
Track Severe Weather on mobile